Skip Navigation LinksHome page > Weather > Current weather Skip Navigation Links

Current Weather

Chicago O'Hare Intl, Chicago

For information only: do not use for flight planning or navigation.
Latest weather
Observation time Saturday, January 31, 2015 12:51 AM CST
Local time Saturday, January 31, 2015 12:59 AM CST
Flight conditions Visual Meteorological Conditions
Winds
Wind direction South-Southwest (200°)
Wind speed 6 mph
Visibility 10 mi.
Sky condition
Ceiling 9,500 ft. overcast
Cloud layer overcast 9,500 ft.
Temperature 21°F
Dewpoint 14°F
Altimeter 30.31 in.Hg
Derived measurements
Relative humidity 74%
Wind chill 13°F
Density altitude -2348 ft.
Sea-level pressure 30.34 in.Hg
Remarks
Automated weather observing station with precipitation discriminator.
METAR KORD 310651Z 20005KT 10SM OVC095 M06/M10 A3031 RMK AO2 SLP274 T10611100

Settings

Location code

InnerDrive.Weather 4.0.5505.0 Release CLR 4.0.30319.34014
Copyright ©2015 Inner Drive Technology. All rights reserved. Portions Copyright ©1986-2015 David Braverman.

Find weather

Site navigation


Skip Navigation Links

Place info

Page info

PayPal - The safer, easier way to pay online!

Return home.

Copyright ©2015 Inner Drive Technology. Purveyors of fine, hand-crafted computer software. Page printed 2015-01-31T06:59:22 UTC.